Aviation Digital Data Service (ADDS)

Output produced by METARs form (2218 UTC 22 July 2018)
found at http://bcaws.aviationweather.gov/adds/metars/
 
METAR text: KPAO 222147Z 35013KT 10SM FEW120 24/14 A3008
Conditions at: KPAO (PALO ALTO , CA, US) observed 2147 UTC 22 July 2018
Temperature: 24.0°C (75°F)
Dewpoint: 14.0°C (57°F) [RH = 54%]
Pressure (altimeter): 30.08 inches Hg (1018.7 mb)
Winds: from the N (350 degrees) at 15 MPH (13 knots; 6.8 m/s)
Visibility: 10 or more miles (16+ km)
Ceiling: at least 12,000 feet AGL
Clouds: few clouds at 12000 feet AGL
Weather: no significant weather observed at this time